createdAt,value
2022-10-07T00:00:55.967Z,96142.53
2022-10-07T00:03:26.990Z,96150.09
2022-10-07T00:06:11.786Z,96152.13
2022-10-07T00:08:40.361Z,96155.69
2022-10-07T00:11:12.933Z,96149.13
2022-10-07T00:13:41.434Z,96151.81
2022-10-07T00:16:10.962Z,96147.59
2022-10-07T00:18:38.582Z,96142.81
2022-10-07T00:21:11.879Z,96154.66
2022-10-07T00:23:40.216Z,96150.31
2022-10-07T00:26:09.483Z,96142.56
2022-10-07T00:28:36.844Z,96140.13
2022-10-07T00:31:06.618Z,96135.88
2022-10-07T00:33:38.401Z,96127.63
2022-10-07T00:36:16.931Z,96128.25
2022-10-07T00:38:44.761Z,96118.06
2022-10-07T00:41:20.016Z,96127.56
2022-10-07T00:43:47.272Z,96130.00
2022-10-07T00:46:42.766Z,96131.41
2022-10-07T00:49:13.601Z,96120.56
2022-10-07T00:51:43.509Z,96114.19
2022-10-07T00:54:14.430Z,96118.16
2022-10-07T00:56:43.537Z,96111.34
2022-10-07T00:59:12.148Z,96110.13
2022-10-07T01:01:41.116Z,96113.53
2022-10-07T01:04:11.841Z,96114.78
2022-10-07T01:06:39.372Z,96109.34
2022-10-07T01:09:10.672Z,96103.81
2022-10-07T01:11:50.884Z,96102.72
2022-10-07T01:14:53.336Z,96097.97
2022-10-07T01:17:55.490Z,96097.31
2022-10-07T01:20:40.416Z,96096.34
2022-10-07T01:23:16.015Z,96090.63
2022-10-07T01:26:13.679Z,96087.50
2022-10-07T01:28:43.466Z,96089.91
2022-10-07T01:31:16.366Z,96086.59
2022-10-07T01:33:46.324Z,96081.00
2022-10-07T01:36:16.106Z,96084.00
2022-10-07T01:38:50.103Z,96085.81
2022-10-07T01:41:19.812Z,96082.81
2022-10-07T01:43:48.565Z,96076.13
2022-10-07T01:46:22.374Z,96069.44
2022-10-07T01:48:49.525Z,96076.88
2022-10-07T01:51:20.960Z,96079.44
2022-10-07T01:53:53.558Z,96070.59
2022-10-07T01:57:09.904Z,96073.84
2022-10-07T01:59:45.260Z,96066.75
2022-10-07T02:02:28.207Z,96068.16
2022-10-07T02:05:02.645Z,96072.00
2022-10-07T02:07:54.215Z,96069.50
2022-10-07T02:10:58.937Z,96066.78
2022-10-07T02:13:28.976Z,96066.31
2022-10-07T02:16:05.863Z,96069.59
2022-10-07T02:18:36.633Z,96064.50
2022-10-07T02:21:09.013Z,96063.38
2022-10-07T02:23:40.209Z,96056.38
2022-10-07T02:26:08.470Z,96054.66
2022-10-07T02:28:36.825Z,96058.09
2022-10-07T02:31:05.237Z,96053.88
2022-10-07T02:33:37.129Z,96055.81
2022-10-07T02:36:13.222Z,96051.53
2022-10-07T02:38:43.806Z,96052.69
2022-10-07T02:41:31.409Z,96054.59
2022-10-07T02:44:22.009Z,96052.03
2022-10-07T02:46:54.139Z,96043.28
2022-10-07T02:49:23.532Z,96042.91
2022-10-07T02:51:58.531Z,96037.19
2022-10-07T02:54:34.667Z,96043.63
2022-10-07T02:57:02.235Z,96042.47
2022-10-07T02:59:31.031Z,96039.66
2022-10-07T03:02:02.563Z,96040.47
2022-10-07T03:04:29.162Z,96042.34
2022-10-07T03:06:58.709Z,96043.72
2022-10-07T03:09:25.835Z,96036.25
2022-10-07T03:11:52.417Z,96035.78
2022-10-07T03:14:19.059Z,96030.38
2022-10-07T03:16:45.687Z,96038.34
2022-10-07T03:19:12.330Z,96035.66
2022-10-07T03:21:54.294Z,96039.06
2022-10-07T03:24:20.987Z,96040.22
2022-10-07T03:26:50.054Z,96033.34
2022-10-07T03:29:17.496Z,96029.44
2022-10-07T03:31:44.455Z,96026.41
2022-10-07T03:34:11.180Z,96022.75
2022-10-07T03:36:39.351Z,96018.53
2022-10-07T03:39:09.933Z,96025.88
2022-10-07T03:41:37.119Z,96024.81
2022-10-07T03:44:04.346Z,96020.78
2022-10-07T03:46:31.115Z,96022.78
2022-10-07T03:48:58.455Z,96022.63
2022-10-07T03:51:25.954Z,96022.84
2022-10-07T03:53:57.351Z,96027.38
2022-10-07T03:56:26.227Z,96029.47
2022-10-07T03:58:52.766Z,96024.53
2022-10-07T04:01:19.449Z,96021.09
2022-10-07T04:03:53.456Z,96018.88
2022-10-07T04:06:24.274Z,96021.78
2022-10-07T04:08:53.014Z,96017.56
2022-10-07T04:11:19.762Z,96012.31
2022-10-07T04:13:48.054Z,96018.28
2022-10-07T04:16:16.879Z,96011.38
2022-10-07T04:18:44.346Z,96011.53
2022-10-07T04:21:12.151Z,96002.63
2022-10-07T04:23:40.571Z,96010.69
2022-10-07T04:26:10.850Z,95995.50
2022-10-07T04:28:41.373Z,95988.06
2022-10-07T04:31:14.877Z,95988.81
2022-10-07T04:33:46.287Z,95982.75
2022-10-07T04:36:16.711Z,95981.94
2022-10-07T04:38:50.257Z,95981.94
2022-10-07T04:41:18.790Z,95977.72
2022-10-07T04:43:50.391Z,95980.06
2022-10-07T04:46:21.404Z,95977.00
2022-10-07T04:48:54.005Z,95979.47
2022-10-07T04:51:24.543Z,95980.75
2022-10-07T04:53:57.125Z,95981.09
2022-10-07T04:56:31.256Z,95982.03
2022-10-07T04:58:58.410Z,95977.38
2022-10-07T05:01:25.427Z,95977.38
2022-10-07T05:03:52.082Z,95981.81
2022-10-07T05:06:18.780Z,95970.78
2022-10-07T05:08:45.930Z,95975.00
2022-10-07T05:11:13.789Z,95977.47
2022-10-07T05:13:47.634Z,95980.34
2022-10-07T05:16:15.117Z,95977.19
2022-10-07T05:18:42.742Z,95971.94
2022-10-07T05:21:11.853Z,95970.72
2022-10-07T05:23:42.575Z,95969.53
2022-10-07T05:26:14.183Z,95968.94
2022-10-07T05:28:45.635Z,95962.84
2022-10-07T05:31:15.585Z,95961.66
2022-10-07T05:33:47.163Z,95970.53
2022-10-07T05:36:14.143Z,95966.44
2022-10-07T05:38:42.367Z,95959.03
2022-10-07T05:41:11.768Z,95957.41
2022-10-07T05:43:43.049Z,95954.47
2022-10-07T05:46:16.954Z,95954.53
2022-10-07T05:48:49.704Z,95957.44
2022-10-07T05:51:17.353Z,95954.34
2022-10-07T05:53:44.834Z,95964.03
2022-10-07T05:56:15.821Z,95959.16
2022-10-07T05:58:43.068Z,95957.47
2022-10-07T06:01:15.908Z,95962.75
2022-10-07T06:03:48.119Z,95966.69
2022-10-07T06:06:15.122Z,95963.41
2022-10-07T06:08:41.782Z,95963.00
2022-10-07T06:11:30.434Z,95971.09
2022-10-07T06:13:58.368Z,95970.69
2022-10-07T06:16:25.777Z,95974.34
2022-10-07T06:18:53.811Z,95980.78
2022-10-07T06:21:27.728Z,95971.34
2022-10-07T06:23:58.752Z,95973.78
2022-10-07T06:26:30.378Z,95968.75
2022-10-07T06:28:59.326Z,95967.97
2022-10-07T06:31:26.068Z,95964.94
2022-10-07T06:33:58.232Z,95972.44
2022-10-07T06:36:25.857Z,95965.91
2022-10-07T06:38:55.470Z,95971.44
2022-10-07T06:41:27.106Z,95973.81
2022-10-07T06:44:06.139Z,95961.78
2022-10-07T06:46:34.116Z,95970.34
2022-10-07T06:49:00.842Z,95974.31
2022-10-07T06:51:27.732Z,95977.03
2022-10-07T06:53:57.978Z,95975.84
2022-10-07T06:56:28.995Z,95965.09
2022-10-07T06:58:57.242Z,95970.84
2022-10-07T07:01:35.007Z,95970.84
2022-10-07T07:04:01.702Z,95970.28
2022-10-07T07:06:36.312Z,95973.56
2022-10-07T07:09:05.278Z,95971.69
2022-10-07T07:11:37.799Z,95967.88
2022-10-07T07:14:12.514Z,95969.09
2022-10-07T07:16:42.208Z,95970.47
2022-10-07T07:19:14.966Z,95965.75
2022-10-07T07:21:42.987Z,95966.41
2022-10-07T07:24:15.328Z,95964.66
2022-10-07T07:26:42.904Z,95965.34
2022-10-07T07:29:11.972Z,95967.94
2022-10-07T07:31:44.467Z,95974.34
2022-10-07T07:34:14.074Z,95975.41
2022-10-07T07:36:48.087Z,95971.19
2022-10-07T07:39:17.879Z,95969.28
2022-10-07T07:41:50.912Z,95960.81
2022-10-07T07:44:21.138Z,95963.94
2022-10-07T07:46:52.056Z,95960.00
2022-10-07T07:49:21.729Z,95961.09
2022-10-07T07:51:49.595Z,95955.88
2022-10-07T07:54:27.114Z,95954.66
2022-10-07T07:56:57.598Z,95953.03
2022-10-07T07:59:26.475Z,95951.84
2022-10-07T08:01:55.196Z,95948.69
2022-10-07T08:04:22.055Z,95950.59
2022-10-07T08:06:48.813Z,95953.72
2022-10-07T08:09:16.093Z,95947.31
2022-10-07T08:11:45.289Z,95951.25
2022-10-07T08:14:16.120Z,95954.63
2022-10-07T08:16:47.244Z,95948.19
2022-10-07T08:19:13.909Z,95942.47
2022-10-07T08:21:43.584Z,95944.88
2022-10-07T08:24:15.406Z,95946.84
2022-10-07T08:26:42.052Z,95941.81
2022-10-07T08:29:15.304Z,95939.47
2022-10-07T08:31:42.663Z,95936.97
2022-10-07T08:34:11.101Z,95937.69
2022-10-07T08:36:37.883Z,95938.81
2022-10-07T08:39:05.470Z,95930.88
2022-10-07T08:41:38.023Z,95931.22
2022-10-07T08:44:16.719Z,95931.22
2022-10-07T08:46:55.900Z,95931.84
2022-10-07T08:50:03.858Z,95929.88
2022-10-07T08:52:35.487Z,95921.31
2022-10-07T08:55:02.382Z,95920.56
2022-10-07T08:57:47.753Z,95917.44
2022-10-07T09:00:20.097Z,95920.94
2022-10-07T09:03:25.387Z,95913.50
2022-10-07T09:05:54.433Z,95912.25
2022-10-07T09:08:28.655Z,95910.63
2022-10-07T09:11:00.337Z,95908.41
2022-10-07T09:13:33.077Z,95909.38
2022-10-07T09:16:07.812Z,95904.78
2022-10-07T09:18:39.320Z,95905.97
2022-10-07T09:21:12.310Z,95896.59
2022-10-07T09:23:39.083Z,95895.41
2022-10-07T09:26:13.113Z,95900.28
2022-10-07T09:28:40.540Z,95893.69
2022-10-07T09:31:09.728Z,95892.69
2022-10-07T09:33:42.780Z,95893.72
2022-10-07T09:36:18.251Z,95891.38
2022-10-07T09:38:47.652Z,95888.97
2022-10-07T09:41:32.040Z,95886.25
2022-10-07T09:44:03.988Z,95891.72
2022-10-07T09:46:42.735Z,95888.50
2022-10-07T09:49:30.544Z,95886.47
2022-10-07T09:52:14.371Z,95881.88
2022-10-07T09:54:42.392Z,95880.78
2022-10-07T09:57:30.892Z,95884.00
2022-10-07T10:00:12.752Z,95882.34
2022-10-07T10:02:52.425Z,95879.53
2022-10-07T10:05:31.301Z,95876.31
2022-10-07T10:08:06.755Z,95881.91
2022-10-07T10:10:35.040Z,95877.50
2022-10-07T10:13:03.692Z,95877.50
2022-10-07T10:15:36.254Z,95870.38
2022-10-07T10:18:41.414Z,95875.28
2022-10-07T10:21:27.350Z,95873.19
2022-10-07T10:23:59.426Z,95869.16
2022-10-07T10:26:35.359Z,95862.09
2022-10-07T10:29:28.223Z,95865.69
2022-10-07T10:32:00.546Z,95864.56
2022-10-07T10:34:32.501Z,95857.88
2022-10-07T10:37:14.687Z,95860.06
2022-10-07T10:39:41.279Z,95855.28
2022-10-07T10:42:14.672Z,95847.59
2022-10-07T10:44:47.444Z,95852.03
2022-10-07T10:47:31.364Z,95853.41
2022-10-07T10:50:10.213Z,95848.06
2022-10-07T10:52:51.606Z,95847.75
2022-10-07T10:55:31.086Z,95847.75
2022-10-07T10:58:32.947Z,95846.47
2022-10-07T11:01:40.100Z,95849.00
2022-10-07T11:04:18.695Z,95840.03
2022-10-07T11:06:51.085Z,95839.25
2022-10-07T11:09:33.002Z,95830.47
2022-10-07T11:12:04.753Z,95829.31
2022-10-07T11:14:32.962Z,95834.69
2022-10-07T11:17:05.084Z,95828.66
2022-10-07T11:20:05.831Z,95828.38
2022-10-07T11:22:39.302Z,95824.81
2022-10-07T11:25:24.014Z,95822.50
2022-10-07T11:27:53.100Z,95815.50
2022-10-07T11:30:24.623Z,95808.94
2022-10-07T11:33:00.490Z,95811.91
2022-10-07T11:35:37.495Z,95801.72
2022-10-07T11:38:10.106Z,95797.97
2022-10-07T11:40:49.375Z,95799.75
2022-10-07T11:43:26.586Z,95798.94
2022-10-07T11:46:00.370Z,95788.19
2022-10-07T11:48:39.214Z,95785.41
2022-10-07T11:51:08.132Z,95784.13
2022-10-07T11:53:38.889Z,95777.16
2022-10-07T11:56:24.525Z,95781.41
2022-10-07T11:59:03.101Z,95774.53
2022-10-07T12:01:40.942Z,95769.97
2022-10-07T12:04:24.946Z,95765.75
2022-10-07T12:07:29.174Z,95764.94
2022-10-07T12:10:02.367Z,95758.03
2022-10-07T12:12:47.454Z,95749.81
2022-10-07T12:15:32.999Z,95744.91
2022-10-07T12:18:06.737Z,95745.19
2022-10-07T12:20:52.701Z,95741.53
2022-10-07T12:23:32.168Z,95739.25
2022-10-07T12:26:30.401Z,95725.66
2022-10-07T12:28:57.371Z,95722.72
2022-10-07T12:31:23.906Z,95719.31
2022-10-07T12:34:10.081Z,95724.44
2022-10-07T12:36:41.318Z,95720.75
2022-10-07T12:39:12.341Z,95716.59
2022-10-07T12:41:40.751Z,95708.88
2022-10-07T12:44:26.379Z,95710.56
2022-10-07T12:46:54.364Z,95705.22
2022-10-07T12:49:29.807Z,95701.53
2022-10-07T12:52:00.250Z,95702.19
2022-10-07T12:54:32.511Z,95698.22
2022-10-07T12:57:00.501Z,95696.78
2022-10-07T12:59:48.986Z,95689.94
2022-10-07T13:02:52.609Z,95686.72
2022-10-07T13:05:59.615Z,95693.34
2022-10-07T13:08:47.475Z,95692.97
2022-10-07T13:11:17.028Z,95684.38
2022-10-07T13:14:05.598Z,95687.56
2022-10-07T13:16:55.178Z,95677.28
2022-10-07T13:19:36.538Z,95673.50
2022-10-07T13:22:16.426Z,95682.31
2022-10-07T13:24:49.871Z,95676.44
2022-10-07T13:27:25.398Z,95675.13
2022-10-07T13:29:53.076Z,95661.94
2022-10-07T13:32:34.507Z,95662.75
2022-10-07T13:35:30.494Z,95658.78
2022-10-07T13:37:59.788Z,95656.50
2022-10-07T13:40:34.039Z,95668.06
2022-10-07T13:43:07.091Z,95656.06
2022-10-07T13:45:43.603Z,95652.81
2022-10-07T13:48:25.372Z,95648.25
2022-10-07T13:50:55.537Z,95644.25
2022-10-07T13:53:28.074Z,95648.97
2022-10-07T13:56:22.223Z,95641.25
2022-10-07T13:58:52.394Z,95638.91
2022-10-07T14:01:19.113Z,95636.53
2022-10-07T14:04:20.176Z,95639.22
2022-10-07T14:06:46.767Z,95625.03
2022-10-07T14:09:22.573Z,95627.84
2022-10-07T14:11:54.681Z,95625.50
2022-10-07T14:14:31.808Z,95621.50
2022-10-07T14:17:04.654Z,95621.72
2022-10-07T14:19:32.971Z,95623.50
2022-10-07T14:22:03.058Z,95618.47
2022-10-07T14:24:30.219Z,95617.56
2022-10-07T14:26:57.433Z,95625.66
2022-10-07T14:29:29.720Z,95622.44
2022-10-07T14:32:31.233Z,95623.72
2022-10-07T14:35:20.624Z,95618.59
2022-10-07T14:37:47.821Z,95616.41
2022-10-07T14:40:20.900Z,95613.22
2022-10-07T14:42:47.943Z,95605.28
2022-10-07T14:45:17.898Z,95602.44
2022-10-07T14:47:45.384Z,95603.53
2022-10-07T14:50:13.535Z,95600.38
2022-10-07T14:52:47.441Z,95598.16
2022-10-07T14:55:33.172Z,95595.63
2022-10-07T14:58:00.159Z,95588.34
2022-10-07T15:00:34.894Z,95586.00
2022-10-07T15:03:06.043Z,95589.13
2022-10-07T15:05:33.821Z,95582.09
2022-10-07T15:08:01.450Z,95590.56
2022-10-07T15:10:28.307Z,95586.69
2022-10-07T15:12:56.105Z,95581.44
2022-10-07T15:15:22.635Z,95580.41
2022-10-07T15:17:51.633Z,95576.25
2022-10-07T15:20:18.238Z,95576.31
2022-10-07T15:22:45.733Z,95575.28
2022-10-07T15:25:15.081Z,95565.09
2022-10-07T15:27:41.796Z,95566.94
2022-10-07T15:30:08.998Z,95568.63
2022-10-07T15:32:36.421Z,95566.16
2022-10-07T15:35:03.011Z,95561.81
2022-10-07T15:37:29.692Z,95563.28
2022-10-07T15:39:56.452Z,95561.97
2022-10-07T15:42:26.512Z,95562.91
2022-10-07T15:44:53.443Z,95568.50
2022-10-07T15:47:20.185Z,95570.47
2022-10-07T15:49:47.973Z,95566.94
2022-10-07T15:52:14.573Z,95572.66
2022-10-07T15:54:41.454Z,95566.00
2022-10-07T15:57:08.455Z,95569.72
2022-10-07T15:59:35.898Z,95564.69
2022-10-07T16:02:03.755Z,95573.97
2022-10-07T16:04:30.418Z,95565.69
2022-10-07T16:06:57.400Z,95575.25
2022-10-07T16:09:24.660Z,95576.69
2022-10-07T16:11:51.572Z,95570.97
2022-10-07T16:14:18.431Z,95571.25
2022-10-07T16:16:45.448Z,95570.38
2022-10-07T16:19:12.244Z,95565.34
2022-10-07T16:21:42.062Z,95563.81
2022-10-07T16:24:15.661Z,95573.31
2022-10-07T16:26:43.876Z,95568.91
2022-10-07T16:29:35.163Z,95561.63
2022-10-07T16:32:02.126Z,95573.97
2022-10-07T16:34:29.123Z,95566.75
2022-10-07T16:36:57.032Z,95575.13
2022-10-07T16:39:24.399Z,95569.88
2022-10-07T16:41:52.321Z,95569.50
2022-10-07T16:44:20.134Z,95574.75
2022-10-07T16:46:47.637Z,95573.94
2022-10-07T16:49:17.193Z,95565.00
2022-10-07T16:51:45.930Z,95574.03
2022-10-07T16:54:15.934Z,95567.81
2022-10-07T16:56:49.111Z,95576.34
2022-10-07T16:59:23.268Z,95576.25
2022-10-07T17:01:52.453Z,95575.53
2022-10-07T17:04:19.286Z,95568.41
2022-10-07T17:06:46.208Z,95566.78
2022-10-07T17:09:13.465Z,95567.47
2022-10-07T17:11:40.363Z,95570.72
2022-10-07T17:14:11.091Z,95575.50
2022-10-07T17:16:43.512Z,95579.00
2022-10-07T17:19:17.481Z,95570.47
2022-10-07T17:21:45.484Z,95570.19
2022-10-07T17:24:13.158Z,95566.03
2022-10-07T17:26:40.478Z,95566.38
2022-10-07T17:29:09.894Z,95569.00
2022-10-07T17:31:43.206Z,95566.97
2022-10-07T17:34:11.579Z,95576.44
2022-10-07T17:36:39.183Z,95572.50
2022-10-07T17:39:05.934Z,95573.56
2022-10-07T17:41:34.577Z,95577.72
2022-10-07T17:44:03.691Z,95575.34
2022-10-07T17:46:33.041Z,95568.94
2022-10-07T17:49:01.921Z,95572.06
2022-10-07T17:51:31.223Z,95576.56
2022-10-07T17:54:00.121Z,95578.88
2022-10-07T17:56:27.580Z,95575.50
2022-10-07T17:58:54.426Z,95580.00
2022-10-07T18:01:26.279Z,95569.25
2022-10-07T18:03:57.902Z,95572.53
2022-10-07T18:06:26.522Z,95569.41
2022-10-07T18:08:53.094Z,95575.00
2022-10-07T18:11:20.182Z,95568.34
2022-10-07T18:14:05.380Z,95570.38
2022-10-07T18:16:33.717Z,95569.69
2022-10-07T18:19:00.462Z,95570.22
2022-10-07T18:21:29.826Z,95561.94
2022-10-07T18:23:59.565Z,95566.94
2022-10-07T18:26:26.179Z,95574.16
2022-10-07T18:28:52.826Z,95570.47
2022-10-07T18:31:20.032Z,95568.16
2022-10-07T18:33:46.821Z,95574.16
2022-10-07T18:36:15.853Z,95570.50
2022-10-07T18:38:44.174Z,95564.91
2022-10-07T18:41:16.648Z,95574.28
2022-10-07T18:43:45.354Z,95566.38
2022-10-07T18:46:18.984Z,95570.31
2022-10-07T18:48:48.043Z,95568.25
2022-10-07T18:51:16.884Z,95564.47
2022-10-07T18:53:46.648Z,95568.78
2022-10-07T18:56:19.178Z,95566.78
2022-10-07T18:58:48.121Z,95558.78
2022-10-07T19:01:26.372Z,95559.84
2022-10-07T19:03:58.475Z,95566.91
2022-10-07T19:06:26.010Z,95566.78
2022-10-07T19:08:54.207Z,95565.53
2022-10-07T19:11:21.888Z,95556.31
2022-10-07T19:13:52.012Z,95559.56
2022-10-07T19:16:20.305Z,95551.84
2022-10-07T19:18:48.881Z,95560.13
2022-10-07T19:21:18.201Z,95559.59
2022-10-07T19:23:45.015Z,95565.63
2022-10-07T19:26:12.777Z,95561.41
2022-10-07T19:28:40.588Z,95556.75
2022-10-07T19:31:12.711Z,95558.78
2022-10-07T19:33:39.328Z,95553.06
2022-10-07T19:36:06.982Z,95552.81
2022-10-07T19:38:33.493Z,95551.88
2022-10-07T19:41:00.049Z,95544.69
2022-10-07T19:43:27.582Z,95549.59
2022-10-07T19:45:54.174Z,95548.09
2022-10-07T19:48:21.252Z,95551.22
2022-10-07T19:50:56.931Z,95551.56
2022-10-07T19:53:23.463Z,95547.44
2022-10-07T19:55:50.021Z,95553.47
2022-10-07T19:58:16.890Z,95549.78
2022-10-07T20:00:43.483Z,95557.44
2022-10-07T20:03:10.104Z,95553.03
2022-10-07T20:05:40.118Z,95549.66
2022-10-07T20:08:10.039Z,95542.75
2022-10-07T20:10:38.575Z,95546.69
2022-10-07T20:13:05.098Z,95542.00
2022-10-07T20:15:31.689Z,95537.81
2022-10-07T20:17:58.888Z,95539.91
2022-10-07T20:20:26.914Z,95542.84
2022-10-07T20:22:54.318Z,95536.63
2022-10-07T20:25:20.863Z,95532.88
2022-10-07T20:27:48.969Z,95530.28
2022-10-07T20:30:18.274Z,95530.97
2022-10-07T20:32:45.360Z,95530.59
2022-10-07T20:35:12.276Z,95524.13
2022-10-07T20:37:38.892Z,95522.09
2022-10-07T20:40:24.372Z,95521.69
2022-10-07T20:42:51.823Z,95530.66
2022-10-07T20:45:18.558Z,95527.84
2022-10-07T20:47:46.154Z,95524.28
2022-10-07T20:50:13.362Z,95523.09
2022-10-07T20:52:39.995Z,95522.94
2022-10-07T20:55:08.870Z,95522.03
2022-10-07T20:57:37.944Z,95521.88
2022-10-07T21:00:15.883Z,95518.25
2022-10-07T21:02:44.194Z,95515.41
2022-10-07T21:05:10.968Z,95513.81
2022-10-07T21:07:37.586Z,95512.00
2022-10-07T21:10:04.383Z,95520.97
2022-10-07T21:12:31.779Z,95507.00
2022-10-07T21:15:00.534Z,95516.41
2022-10-07T21:17:27.264Z,95514.38
2022-10-07T21:19:55.097Z,95511.66
2022-10-07T21:22:21.682Z,95509.50
2022-10-07T21:24:50.992Z,95508.41
2022-10-07T21:27:17.542Z,95510.72
2022-10-07T21:29:48.534Z,95512.91
2022-10-07T21:32:15.365Z,95508.81
2022-10-07T21:34:43.580Z,95499.88
2022-10-07T21:37:10.217Z,95506.41
2022-10-07T21:39:38.084Z,95505.03
2022-10-07T21:42:04.730Z,95497.16
2022-10-07T21:44:33.305Z,95502.19
2022-10-07T21:47:00.150Z,95503.41
2022-10-07T21:49:27.011Z,95502.31
2022-10-07T21:51:53.630Z,95496.94
2022-10-07T21:54:20.411Z,95500.97
2022-10-07T21:56:47.029Z,95494.88
2022-10-07T21:59:14.167Z,95501.41
2022-10-07T22:01:42.346Z,95495.03
2022-10-07T22:04:17.720Z,95498.28
2022-10-07T22:07:03.950Z,95497.97
2022-10-07T22:09:31.306Z,95499.22
2022-10-07T22:11:57.964Z,95490.00
2022-10-07T22:14:24.574Z,95487.16
2022-10-07T22:22:44.449Z,95481.97
2022-10-07T22:25:11.268Z,95476.78
2022-10-07T22:27:37.843Z,95477.34
2022-10-07T22:30:04.910Z,95480.06
2022-10-07T22:32:31.509Z,95481.00
2022-10-07T22:35:16.742Z,95467.16
2022-10-07T22:37:44.031Z,95468.66
2022-10-07T22:40:11.854Z,95470.00
2022-10-07T22:42:38.391Z,95469.91
2022-10-07T22:45:07.015Z,95468.66
2022-10-07T22:47:33.570Z,95464.44
2022-10-07T22:50:00.244Z,95469.44
2022-10-07T22:52:26.765Z,95470.56
2022-10-07T22:54:55.780Z,95468.78
2022-10-07T22:57:23.394Z,95470.84
2022-10-07T22:59:49.945Z,95464.22
2022-10-07T23:02:16.541Z,95461.63
2022-10-07T23:04:43.105Z,95462.16
2022-10-07T23:07:10.398Z,95463.91
2022-10-07T23:09:36.965Z,95460.09
2022-10-07T23:12:05.791Z,95457.00
2022-10-07T23:14:32.546Z,95456.31
2022-10-07T23:16:59.091Z,95453.88
2022-10-07T23:19:26.027Z,95457.13
2022-10-07T23:21:52.656Z,95450.06
2022-10-07T23:24:19.206Z,95457.41
2022-10-07T23:26:45.998Z,95453.97
2022-10-07T23:29:13.017Z,95455.75
2022-10-07T23:31:39.625Z,95455.47
2022-10-07T23:34:06.467Z,95448.81
2022-10-07T23:36:34.677Z,95452.22
2022-10-07T23:39:01.423Z,95455.09
2022-10-07T23:41:29.569Z,95449.38
2022-10-07T23:43:58.016Z,95448.03
2022-10-07T23:46:26.305Z,95442.88
2022-10-07T23:48:54.051Z,95447.75
2022-10-07T23:51:23.084Z,95445.03
2022-10-07T23:53:50.135Z,95438.41
2022-10-07T23:56:20.003Z,95434.03
2022-10-07T23:58:46.779Z,95430.66
